createdAt,value
2023-04-27T00:00:44.484Z,16.84
2023-04-27T00:03:12.554Z,16.88
2023-04-27T00:05:40.180Z,16.93
2023-04-27T00:08:07.566Z,16.97
2023-04-27T00:10:34.827Z,16.93
2023-04-27T00:13:02.231Z,16.79
2023-04-27T00:15:29.477Z,16.78
2023-04-27T00:17:57.751Z,16.73
2023-04-27T00:20:25.464Z,16.70
2023-04-27T00:22:52.476Z,16.72
2023-04-27T00:25:19.659Z,16.77
2023-04-27T00:27:46.757Z,16.81
2023-04-27T00:30:13.904Z,16.76
2023-04-27T00:32:42.463Z,16.73
2023-04-27T00:35:10.306Z,16.71
2023-04-27T00:37:37.511Z,16.64
2023-04-27T00:40:08.034Z,16.52
2023-04-27T00:42:35.630Z,16.39
2023-04-27T00:45:03.586Z,16.42
2023-04-27T00:47:30.632Z,16.34
2023-04-27T00:49:57.755Z,16.31
2023-04-27T00:52:26.264Z,16.24
2023-04-27T00:54:53.319Z,16.37
2023-04-27T00:57:23.393Z,16.34
2023-04-27T00:59:50.402Z,16.21
2023-04-27T01:02:17.620Z,16.21
2023-04-27T01:04:45.991Z,16.26
2023-04-27T01:07:13.039Z,16.23
2023-04-27T01:09:40.086Z,16.14
2023-04-27T01:12:07.671Z,15.94
2023-04-27T01:14:36.415Z,15.85
2023-04-27T01:17:03.824Z,15.82
2023-04-27T01:19:31.688Z,15.78
2023-04-27T01:21:58.676Z,15.80
2023-04-27T01:24:25.688Z,15.79
2023-04-27T01:26:54.172Z,15.84
2023-04-27T01:29:21.708Z,15.90
2023-04-27T01:31:48.816Z,15.82
2023-04-27T01:34:16.194Z,15.81
2023-04-27T01:36:47.545Z,15.77
2023-04-27T01:39:15.163Z,15.70
2023-04-27T01:41:42.488Z,15.67
2023-04-27T01:44:10.106Z,15.68
2023-04-27T01:46:37.252Z,15.74
2023-04-27T01:49:04.542Z,15.71
2023-04-27T01:51:33.067Z,15.76
2023-04-27T01:54:00.145Z,15.77
2023-04-27T01:56:27.251Z,15.76
2023-04-27T01:58:55.500Z,15.76
2023-04-27T02:01:23.085Z,15.77
2023-04-27T02:03:50.409Z,15.82
2023-04-27T02:06:17.931Z,15.81
2023-04-27T02:08:46.424Z,15.70
2023-04-27T02:11:13.440Z,15.62
2023-04-27T02:13:40.626Z,15.65
2023-04-27T02:16:08.237Z,15.54
2023-04-27T02:18:36.315Z,15.45
2023-04-27T02:21:08.837Z,15.43
2023-04-27T02:23:37.010Z,15.41
2023-04-27T02:26:04.780Z,15.45
2023-04-27T02:28:32.540Z,15.48
2023-04-27T02:31:00.567Z,15.60
2023-04-27T02:33:27.664Z,15.58
2023-04-27T02:35:54.688Z,15.54
2023-04-27T02:38:21.715Z,15.58
2023-04-27T02:40:54.577Z,15.46
2023-04-27T02:43:22.289Z,15.37
2023-04-27T02:45:49.877Z,15.40
2023-04-27T02:48:16.932Z,15.46
2023-04-27T02:50:44.255Z,15.50
2023-04-27T02:53:11.869Z,15.45
2023-04-27T02:55:39.302Z,15.39
2023-04-27T02:58:06.457Z,15.41
2023-04-27T03:00:33.823Z,15.37
2023-04-27T03:03:01.083Z,15.37
2023-04-27T03:05:29.194Z,15.45
2023-04-27T03:07:56.397Z,15.50
2023-04-27T03:10:23.471Z,15.47
2023-04-27T03:12:50.518Z,15.44
2023-04-27T03:15:17.626Z,15.41
2023-04-27T03:17:44.966Z,15.37
2023-04-27T03:20:13.876Z,15.34
2023-04-27T03:22:41.077Z,15.36
2023-04-27T03:25:08.695Z,15.37
2023-04-27T03:27:35.733Z,15.42
2023-04-27T03:30:04.619Z,15.37
2023-04-27T03:32:32.048Z,15.34
2023-04-27T03:35:01.441Z,15.30
2023-04-27T03:37:28.465Z,15.33
2023-04-27T03:39:56.772Z,15.35
2023-04-27T03:42:24.259Z,15.40
2023-04-27T03:44:51.767Z,15.40
2023-04-27T03:47:18.817Z,15.40
2023-04-27T03:49:46.454Z,15.41
2023-04-27T03:52:13.502Z,15.47
2023-04-27T03:54:41.148Z,15.55
2023-04-27T03:57:08.654Z,15.55
2023-04-27T03:59:36.357Z,15.61
2023-04-27T04:02:05.594Z,15.61
2023-04-27T04:04:33.001Z,15.51
2023-04-27T04:07:00.393Z,15.51
2023-04-27T04:09:28.161Z,15.46
2023-04-27T04:11:55.255Z,15.41
2023-04-27T04:14:22.778Z,15.38
2023-04-27T04:16:49.914Z,15.38
2023-04-27T04:19:17.193Z,15.39
2023-04-27T04:21:44.384Z,15.37
2023-04-27T04:24:11.634Z,15.34
2023-04-27T04:26:39.626Z,15.33
2023-04-27T04:29:07.976Z,15.37
2023-04-27T04:31:36.106Z,15.32
2023-04-27T04:34:03.778Z,15.24
2023-04-27T04:36:32.213Z,15.24
2023-04-27T04:39:00.968Z,15.26
2023-04-27T04:41:28.246Z,15.23
2023-04-27T04:43:55.809Z,15.25
2023-04-27T04:46:25.076Z,15.20
2023-04-27T04:48:54.045Z,15.23
2023-04-27T04:51:21.989Z,15.25
2023-04-27T04:53:50.407Z,15.30
2023-04-27T04:56:17.405Z,15.32
2023-04-27T04:58:44.593Z,15.30
2023-04-27T05:01:11.972Z,15.30
2023-04-27T05:03:39.225Z,15.39
2023-04-27T05:06:06.756Z,15.43
2023-04-27T05:08:34.006Z,15.44
2023-04-27T05:11:01.271Z,15.45
2023-04-27T05:13:28.446Z,15.55
2023-04-27T05:15:55.634Z,15.58
2023-04-27T05:18:22.902Z,15.56
2023-04-27T05:20:50.114Z,15.58
2023-04-27T05:23:17.619Z,15.56
2023-04-27T05:25:44.570Z,15.56
2023-04-27T05:28:11.677Z,15.53
2023-04-27T05:30:38.757Z,15.58
2023-04-27T05:33:06.546Z,15.62
2023-04-27T05:35:33.791Z,15.65
2023-04-27T05:38:00.943Z,15.62
2023-04-27T05:40:28.197Z,15.57
2023-04-27T05:42:55.246Z,15.51
2023-04-27T05:45:23.038Z,15.53
2023-04-27T05:47:50.144Z,15.58
2023-04-27T05:50:17.451Z,15.66
2023-04-27T05:52:44.606Z,15.71
2023-04-27T05:55:11.673Z,15.72
2023-04-27T05:57:39.273Z,15.74
2023-04-27T06:00:10.690Z,15.76
2023-04-27T06:02:41.071Z,15.73
2023-04-27T06:05:09.160Z,15.68
2023-04-27T06:07:37.960Z,15.65
2023-04-27T06:10:06.148Z,15.69
2023-04-27T06:12:33.705Z,15.71
2023-04-27T06:15:00.991Z,15.74
2023-04-27T06:17:28.411Z,15.78
2023-04-27T06:19:55.528Z,15.80
2023-04-27T06:22:22.973Z,15.81
2023-04-27T06:24:50.253Z,15.87
2023-04-27T06:27:17.338Z,15.93
2023-04-27T06:29:44.489Z,15.92
2023-04-27T06:32:12.185Z,15.95
2023-04-27T06:34:39.420Z,15.99
2023-04-27T06:37:07.671Z,16.01
2023-04-27T06:39:35.439Z,15.94
2023-04-27T06:42:04.661Z,15.92
2023-04-27T06:44:32.564Z,15.93
2023-04-27T06:46:59.631Z,16.02
2023-04-27T06:49:27.326Z,16.09
2023-04-27T06:51:54.575Z,16.14
2023-04-27T06:54:21.865Z,16.12
2023-04-27T06:56:49.477Z,16.03
2023-04-27T06:59:16.793Z,15.95
2023-04-27T07:01:44.217Z,15.85
2023-04-27T07:04:11.449Z,15.83
2023-04-27T07:06:38.626Z,15.90
2023-04-27T07:09:16.218Z,15.92
2023-04-27T07:11:54.231Z,15.96
2023-04-27T07:14:21.681Z,15.98
2023-04-27T07:16:48.763Z,16.04
2023-04-27T07:19:16.070Z,16.04
2023-04-27T07:21:43.484Z,16.01
2023-04-27T07:24:10.699Z,16.03
2023-04-27T07:26:37.863Z,16.04
2023-04-27T07:29:14.425Z,16.12
2023-04-27T07:31:52.177Z,16.21
2023-04-27T07:34:19.664Z,16.22
2023-04-27T07:36:46.863Z,16.22
2023-04-27T07:39:15.149Z,16.26
2023-04-27T07:41:42.625Z,16.26
2023-04-27T07:44:09.654Z,16.25
2023-04-27T07:46:38.208Z,16.29
2023-04-27T07:49:05.733Z,16.29
2023-04-27T07:51:34.359Z,16.26
2023-04-27T07:54:02.800Z,16.27
2023-04-27T07:56:29.947Z,16.26
2023-04-27T07:58:57.389Z,16.31
2023-04-27T08:01:24.500Z,16.40
2023-04-27T08:03:51.753Z,16.43
2023-04-27T08:06:19.718Z,16.48
2023-04-27T08:08:47.599Z,16.53
2023-04-27T08:11:15.072Z,16.58
2023-04-27T08:13:42.054Z,16.62
2023-04-27T08:16:09.414Z,16.67
2023-04-27T08:18:36.874Z,16.74
2023-04-27T08:21:04.454Z,16.75
2023-04-27T08:23:33.251Z,16.74
2023-04-27T08:26:01.037Z,16.80
2023-04-27T08:28:28.474Z,16.81
2023-04-27T08:30:55.631Z,16.75
2023-04-27T08:33:23.062Z,16.67
2023-04-27T08:35:50.144Z,16.71
2023-04-27T08:38:17.470Z,16.78
2023-04-27T08:40:44.647Z,16.83
2023-04-27T08:43:12.002Z,16.84
2023-04-27T08:45:39.293Z,16.82
2023-04-27T08:48:06.814Z,16.75
2023-04-27T08:50:33.903Z,16.77
2023-04-27T08:53:01.047Z,16.75
2023-04-27T08:55:28.432Z,16.74
2023-04-27T08:57:56.637Z,16.73
2023-04-27T09:00:28.083Z,16.72
2023-04-27T09:02:55.534Z,16.72
2023-04-27T09:05:23.892Z,16.71
2023-04-27T09:08:01.123Z,16.68
2023-04-27T09:10:31.429Z,16.62
2023-04-27T09:12:59.630Z,16.65
2023-04-27T09:15:27.894Z,16.63
2023-04-27T09:17:58.414Z,16.58
2023-04-27T09:20:27.635Z,16.55
2023-04-27T09:22:55.882Z,16.50
2023-04-27T09:25:23.857Z,16.56
2023-04-27T09:27:51.087Z,16.65
2023-04-27T09:30:19.083Z,16.72
2023-04-27T09:33:04.708Z,16.67
2023-04-27T09:35:32.927Z,16.65
2023-04-27T09:38:00.374Z,16.67
2023-04-27T09:40:29.929Z,16.67
2023-04-27T09:42:59.036Z,16.63
2023-04-27T09:45:26.612Z,16.60
2023-04-27T09:47:54.018Z,16.64
2023-04-27T09:50:22.336Z,16.74
2023-04-27T09:52:49.405Z,16.77
2023-04-27T09:55:28.961Z,16.83
2023-04-27T09:58:04.268Z,16.83
2023-04-27T10:00:46.550Z,16.83
2023-04-27T10:03:24.467Z,16.78
2023-04-27T10:06:10.806Z,16.67
2023-04-27T10:08:38.677Z,16.60
2023-04-27T10:11:16.193Z,16.49
2023-04-27T10:13:55.509Z,16.55
2023-04-27T10:16:22.977Z,16.51
2023-04-27T10:18:56.865Z,16.47
2023-04-27T10:21:24.063Z,16.52
2023-04-27T10:23:52.051Z,16.51
2023-04-27T10:26:23.377Z,16.55
2023-04-27T10:29:20.832Z,16.53
2023-04-27T10:31:48.742Z,16.59
2023-04-27T10:34:16.934Z,16.59
2023-04-27T10:36:45.144Z,16.60
2023-04-27T10:39:29.809Z,16.45
2023-04-27T10:42:00.087Z,16.49
2023-04-27T10:44:29.050Z,16.51
2023-04-27T10:47:13.102Z,16.53
2023-04-27T10:49:40.771Z,16.55
2023-04-27T10:52:08.152Z,16.53
2023-04-27T10:54:36.382Z,16.48
2023-04-27T10:57:07.349Z,16.53
2023-04-27T10:59:35.417Z,16.55
2023-04-27T11:02:03.207Z,16.59
2023-04-27T11:04:38.642Z,16.67
2023-04-27T11:07:09.115Z,16.77
2023-04-27T11:09:38.001Z,16.76
2023-04-27T11:12:08.735Z,16.76
2023-04-27T11:14:37.276Z,16.78
2023-04-27T11:17:05.035Z,16.77
2023-04-27T11:19:32.541Z,16.72
2023-04-27T11:22:06.757Z,16.67
2023-04-27T11:24:33.945Z,16.65
2023-04-27T11:27:01.003Z,16.66
2023-04-27T11:29:38.223Z,16.63
2023-04-27T11:32:06.068Z,16.61
2023-04-27T11:34:37.555Z,16.56
2023-04-27T11:39:41.766Z,16.51
2023-04-27T11:42:16.835Z,16.55
2023-04-27T11:44:59.981Z,16.57
2023-04-27T11:47:28.623Z,16.54
2023-04-27T11:52:12.174Z,15.75
2023-04-27T11:54:39.508Z,16.86
2023-04-27T11:57:07.205Z,16.69
2023-04-27T11:59:34.261Z,16.58
2023-04-27T12:02:01.647Z,16.52
2023-04-27T12:04:29.801Z,16.66
2023-04-27T12:06:57.209Z,16.57
2023-04-27T12:09:24.440Z,16.54
2023-04-27T12:11:51.443Z,16.50
2023-04-27T12:14:20.081Z,16.50
2023-04-27T12:16:47.638Z,16.51
2023-04-27T12:19:14.764Z,16.54
2023-04-27T12:21:42.917Z,16.61
2023-04-27T12:24:09.970Z,16.66
2023-04-27T12:26:37.227Z,16.70
2023-04-27T12:29:04.618Z,16.74
2023-04-27T12:31:32.096Z,16.87
2023-04-27T12:33:59.281Z,16.98
2023-04-27T12:36:27.436Z,17.02
2023-04-27T12:38:58.043Z,17.05
2023-04-27T12:41:25.456Z,17.06
2023-04-27T12:43:52.794Z,17.04
2023-04-27T12:46:19.951Z,17.02
2023-04-27T12:48:47.147Z,17.00
2023-04-27T12:51:14.791Z,17.05
2023-04-27T12:53:42.128Z,17.04
2023-04-27T12:56:09.220Z,17.01
2023-04-27T12:58:36.615Z,17.03
2023-04-27T13:01:03.823Z,17.03
2023-04-27T13:03:31.390Z,16.95
2023-04-27T13:05:58.848Z,16.96
2023-04-27T13:08:26.470Z,16.90
2023-04-27T13:10:53.646Z,16.81
2023-04-27T13:13:20.799Z,16.72
2023-04-27T13:15:47.952Z,16.63
2023-04-27T13:18:15.372Z,16.61
2023-04-27T13:20:43.269Z,16.57
2023-04-27T13:23:10.324Z,16.58
2023-04-27T13:25:37.396Z,16.61
2023-04-27T13:28:04.628Z,16.53
2023-04-27T13:30:32.679Z,16.51
2023-04-27T13:33:14.339Z,16.51
2023-04-27T13:35:46.046Z,16.46
2023-04-27T13:38:13.096Z,16.41
2023-04-27T13:40:40.484Z,16.40
2023-04-27T13:43:08.005Z,16.41
2023-04-27T13:45:35.073Z,16.45
2023-04-27T13:48:02.147Z,16.42
2023-04-27T13:50:29.215Z,16.42
2023-04-27T13:52:56.726Z,16.48
2023-04-27T13:55:23.943Z,16.51
2023-04-27T13:57:51.106Z,16.53
2023-04-27T14:00:18.669Z,16.53
2023-04-27T14:02:46.232Z,16.55
2023-04-27T14:05:13.513Z,16.55
2023-04-27T14:07:40.640Z,16.60
2023-04-27T14:10:08.551Z,16.67
2023-04-27T14:12:36.184Z,16.70
2023-04-27T14:15:03.392Z,16.75
2023-04-27T14:17:30.780Z,16.83
2023-04-27T14:19:57.994Z,16.89
2023-04-27T14:22:25.198Z,16.90
2023-04-27T14:24:52.243Z,16.95
2023-04-27T14:27:19.466Z,16.99
2023-04-27T14:29:46.804Z,17.04
2023-04-27T14:32:14.986Z,17.07
2023-04-27T14:34:42.519Z,17.03
2023-04-27T14:37:09.670Z,17.00
2023-04-27T14:39:36.822Z,17.03
2023-04-27T14:42:04.562Z,17.05
2023-04-27T14:44:31.756Z,17.08
2023-04-27T14:46:58.864Z,17.11
2023-04-27T14:49:26.097Z,17.14
2023-04-27T14:51:53.308Z,17.14
2023-04-27T14:54:20.582Z,17.15
2023-04-27T14:56:47.756Z,17.11
2023-04-27T14:59:14.951Z,17.07
2023-04-27T15:01:42.292Z,17.12
2023-04-27T15:04:11.366Z,17.11
2023-04-27T15:06:39.467Z,17.11
2023-04-27T15:09:06.387Z,17.14
2023-04-27T15:11:33.490Z,17.12
2023-04-27T15:14:00.616Z,17.06
2023-04-27T15:16:27.767Z,17.02
2023-04-27T15:18:55.204Z,17.05
2023-04-27T15:21:22.471Z,17.01
2023-04-27T15:23:49.478Z,17.01
2023-04-27T15:26:17.024Z,16.95
2023-04-27T15:28:44.374Z,16.93
2023-04-27T15:31:11.585Z,16.92
2023-04-27T15:33:38.881Z,16.88
2023-04-27T15:36:06.133Z,16.87
2023-04-27T15:38:33.285Z,16.90
2023-04-27T15:41:00.326Z,16.94
2023-04-27T15:43:27.923Z,16.98
2023-04-27T15:45:55.074Z,16.99
2023-04-27T15:48:22.282Z,16.91
2023-04-27T15:50:49.250Z,16.89
2023-04-27T15:53:16.327Z,16.92
2023-04-27T15:55:43.659Z,16.99
2023-04-27T15:58:10.853Z,17.03
2023-04-27T16:00:37.959Z,17.10
2023-04-27T16:03:08.695Z,17.17
2023-04-27T16:05:37.538Z,17.12
2023-04-27T16:08:05.161Z,17.07
2023-04-27T16:10:32.460Z,17.07
2023-04-27T16:12:59.509Z,17.11
2023-04-27T16:15:26.940Z,17.14
2023-04-27T16:17:53.974Z,17.12
2023-04-27T16:20:22.733Z,17.05
2023-04-27T16:22:49.807Z,17.05
2023-04-27T16:25:17.091Z,17.05
2023-04-27T16:27:44.265Z,17.08
2023-04-27T16:30:11.583Z,17.04
2023-04-27T16:32:38.925Z,17.08
2023-04-27T16:35:07.709Z,17.08
2023-04-27T16:37:34.753Z,17.06
2023-04-27T16:40:07.022Z,17.02
2023-04-27T16:42:34.350Z,16.98
2023-04-27T16:45:04.343Z,16.99
2023-04-27T16:47:32.011Z,17.01
2023-04-27T16:49:59.053Z,16.99
2023-04-27T16:52:26.318Z,17.00
2023-04-27T16:54:53.443Z,17.03
2023-04-27T16:57:20.795Z,17.07
2023-04-27T16:59:47.841Z,17.06
2023-04-27T17:02:24.519Z,17.06
2023-04-27T17:04:54.325Z,17.00
2023-04-27T17:07:21.703Z,17.00
2023-04-27T17:09:48.873Z,17.02
2023-04-27T17:12:16.943Z,17.07
2023-04-27T17:14:44.239Z,17.12
2023-04-27T17:17:11.820Z,17.15
2023-04-27T17:19:39.369Z,17.14
2023-04-27T17:22:08.340Z,17.11
2023-04-27T17:24:35.478Z,17.01
2023-04-27T17:27:04.311Z,17.02
2023-04-27T17:29:32.034Z,17.07
2023-04-27T17:31:59.488Z,17.09
2023-04-27T17:34:26.739Z,17.09
2023-04-27T17:36:53.870Z,17.08
2023-04-27T17:39:22.800Z,17.05
2023-04-27T17:41:49.902Z,17.10
2023-04-27T17:44:17.434Z,17.10
2023-04-27T17:46:51.315Z,17.07
2023-04-27T17:49:18.901Z,17.08
2023-04-27T17:51:46.337Z,17.10
2023-04-27T17:54:13.477Z,17.09
2023-04-27T17:56:40.909Z,17.09
2023-04-27T17:59:08.561Z,17.09
2023-04-27T18:01:35.814Z,17.09
2023-04-27T18:04:04.572Z,17.05
2023-04-27T18:06:32.167Z,17.05
2023-04-27T18:08:59.419Z,17.07
2023-04-27T18:11:26.620Z,17.08
2023-04-27T18:13:58.282Z,17.06
2023-04-27T18:16:25.807Z,17.05
2023-04-27T18:18:53.191Z,17.03
2023-04-27T18:21:20.514Z,17.04
2023-04-27T18:23:47.638Z,17.07
2023-04-27T18:26:14.863Z,17.09
2023-04-27T18:28:42.135Z,17.09
2023-04-27T18:31:18.982Z,17.10
2023-04-27T18:33:46.581Z,17.09
2023-04-27T18:36:13.870Z,17.07
2023-04-27T18:38:41.019Z,17.03
2023-04-27T18:41:08.142Z,16.98
2023-04-27T18:43:36.690Z,16.99
2023-04-27T18:46:04.836Z,16.96
2023-04-27T18:48:32.670Z,16.97
2023-04-27T18:50:59.845Z,16.96
2023-04-27T18:53:27.403Z,17.00
2023-04-27T18:55:54.638Z,16.98
2023-04-27T18:58:22.479Z,16.98
2023-04-27T19:00:49.554Z,17.00
2023-04-27T19:03:16.715Z,17.01
2023-04-27T19:05:44.272Z,16.96
2023-04-27T19:08:11.549Z,16.94
2023-04-27T19:10:41.432Z,16.92
2023-04-27T19:13:08.716Z,16.93
2023-04-27T19:15:36.058Z,16.95
2023-04-27T19:18:10.397Z,16.95
2023-04-27T19:20:39.282Z,16.92
2023-04-27T19:23:08.152Z,16.90
2023-04-27T19:25:35.513Z,16.87
2023-04-27T19:28:02.745Z,16.91
2023-04-27T19:30:29.959Z,16.93
2023-04-27T19:32:57.083Z,16.91
2023-04-27T19:35:26.637Z,16.90
2023-04-27T19:37:53.710Z,16.91
2023-04-27T19:40:21.671Z,16.93
2023-04-27T19:42:48.758Z,16.97
2023-04-27T19:45:17.196Z,16.98
2023-04-27T19:47:44.860Z,16.98
2023-04-27T19:50:12.717Z,16.98
2023-04-27T19:52:40.038Z,17.04
2023-04-27T19:55:07.639Z,17.04
2023-04-27T19:57:35.098Z,17.01
2023-04-27T20:00:04.641Z,17.01
2023-04-27T20:02:40.435Z,17.02
2023-04-27T20:05:08.583Z,17.03
2023-04-27T20:07:37.489Z,17.03
2023-04-27T20:10:05.824Z,17.05
2023-04-27T20:12:51.389Z,17.06
2023-04-27T20:15:20.209Z,17.07
2023-04-27T20:17:47.354Z,17.07
2023-04-27T20:20:14.573Z,17.07
2023-04-27T20:22:41.940Z,17.05
2023-04-27T20:25:09.502Z,17.04
2023-04-27T20:27:36.721Z,17.01
2023-04-27T20:30:04.483Z,16.99
2023-04-27T20:32:31.997Z,16.99
2023-04-27T20:35:01.451Z,16.99
2023-04-27T20:37:29.344Z,16.99
2023-04-27T20:39:56.414Z,16.95
2023-04-27T20:42:24.680Z,16.94
2023-04-27T20:44:55.060Z,16.91
2023-04-27T20:47:22.714Z,16.89
2023-04-27T20:49:49.762Z,16.90
2023-04-27T20:52:17.052Z,16.95
2023-04-27T20:54:44.120Z,17.00
2023-04-27T20:57:14.349Z,17.04
2023-04-27T20:59:41.755Z,17.03
2023-04-27T21:02:08.825Z,17.01
2023-04-27T21:04:36.277Z,17.01
2023-04-27T21:07:03.420Z,16.96
2023-04-27T21:09:31.458Z,16.94
2023-04-27T21:11:58.583Z,16.94
2023-04-27T21:14:25.650Z,16.95
2023-04-27T21:16:52.759Z,16.92
2023-04-27T21:19:19.809Z,16.95
2023-04-27T21:21:47.030Z,16.98
2023-04-27T21:24:14.127Z,16.99
2023-04-27T21:26:42.510Z,16.99
2023-04-27T21:29:09.782Z,17.00
2023-04-27T21:31:37.125Z,16.98
2023-04-27T21:34:04.474Z,16.97
2023-04-27T21:36:33.363Z,16.93
2023-04-27T21:39:00.393Z,16.94
2023-04-27T21:41:27.607Z,16.97
2023-04-27T21:43:54.798Z,16.94
2023-04-27T21:46:23.314Z,16.92
2023-04-27T21:48:50.529Z,16.90
2023-04-27T21:51:17.590Z,16.91
2023-04-27T21:53:44.575Z,16.90
2023-04-27T21:56:11.730Z,16.88
2023-04-27T21:58:39.097Z,16.88
2023-04-27T22:01:06.727Z,16.91
2023-04-27T22:03:33.936Z,16.89
2023-04-27T22:06:01.160Z,16.86
2023-04-27T22:08:28.177Z,16.89
2023-04-27T22:10:55.825Z,16.81
2023-04-27T22:13:22.959Z,16.80
2023-04-27T22:15:50.054Z,16.80
2023-04-27T22:18:17.125Z,16.78
2023-04-27T22:20:44.309Z,16.77
2023-04-27T22:23:11.711Z,16.71
2023-04-27T22:25:39.000Z,16.68
2023-04-27T22:28:06.068Z,16.65
2023-04-27T22:30:33.095Z,16.58
2023-04-27T22:33:01.550Z,16.63
2023-04-27T22:35:28.983Z,16.64
2023-04-27T22:37:56.449Z,16.68
2023-04-27T22:40:23.585Z,16.70
2023-04-27T22:42:51.005Z,16.65
2023-04-27T22:45:18.045Z,16.62
2023-04-27T22:47:46.206Z,16.64
2023-04-27T22:50:13.723Z,16.64
2023-04-27T22:52:44.173Z,16.63
2023-04-27T22:55:12.100Z,16.63
2023-04-27T22:57:39.713Z,16.61
2023-04-27T23:00:11.502Z,16.58
2023-04-27T23:02:42.372Z,16.59
2023-04-27T23:05:11.079Z,16.62
2023-04-27T23:07:38.733Z,16.56
2023-04-27T23:10:06.490Z,16.50
2023-04-27T23:12:33.699Z,16.45
2023-04-27T23:15:00.801Z,16.42
2023-04-27T23:17:30.872Z,16.37
2023-04-27T23:19:59.273Z,16.37
2023-04-27T23:22:26.455Z,16.37
2023-04-27T23:24:54.158Z,16.41
2023-04-27T23:27:22.703Z,16.40
2023-04-27T23:29:49.718Z,16.40
2023-04-27T23:32:17.321Z,16.43
2023-04-27T23:34:44.415Z,16.44
2023-04-27T23:37:12.206Z,16.46
2023-04-27T23:39:39.602Z,16.49
2023-04-27T23:42:06.978Z,16.49
2023-04-27T23:44:34.034Z,16.50
2023-04-27T23:47:01.050Z,16.46
2023-04-27T23:49:28.152Z,16.44
2023-04-27T23:51:55.515Z,16.40
2023-04-27T23:54:23.403Z,16.36
2023-04-27T23:56:51.149Z,16.32
2023-04-27T23:59:18.747Z,16.33
